Time;durP1;ratioP1;P1;durP2;ratioP2;P2;SDS_P1;SDS_P2;PMS_P1;PMS_P2;Temp;Humidity;BMP_temperature;BMP_pressure;BME280_temperature;BME280_humidity;BME280_pressure;Samples;Min_cycle;Max_cycle;Signal;HPM_P1;HPM_P2
2022/06/10 00:02:05;;;;;;;11.40;7.28;;;;;;;13.10;100.00;101137.25;8261670;28;20170;-64
2022/06/10 00:06:07;;;;;;;15.10;8.27;;;;;;;12.99;100.00;101134.66;8254968;28;20110;-64
2022/06/10 00:10:10;;;;;;;18.35;8.00;;;;;;;12.99;100.00;101134.66;8257641;28;20145;-64
2022/06/10 00:14:11;;;;;;;11.05;7.95;;;;;;;12.96;100.00;101140.34;8276598;28;20117;-64
2022/06/10 00:18:12;;;;;;;13.88;7.05;;;;;;;12.93;100.00;101136.06;8288122;28;20038;-64
2022/06/10 00:22:12;;;;;;;13.13;7.30;;;;;;;12.82;100.00;101133.47;8278479;28;20038;-65
2022/06/10 00:26:13;;;;;;;11.55;7.50;;;;;;;12.79;100.00;101135.59;8288096;28;20469;-64
2022/06/10 00:30:16;;;;;;;9.93;8.20;;;;;;;12.82;100.00;101132.59;8289225;28;20050;-64
2022/06/10 00:34:17;;;;;;;16.48;8.27;;;;;;;12.82;100.00;101133.47;8294341;28;20395;-64
2022/06/10 00:38:18;;;;;;;18.45;7.57;;;;;;;12.78;100.00;101132.03;8293105;28;20038;-64
2022/06/10 00:42:18;;;;;;;13.52;7.97;;;;;;;12.72;100.00;101126.31;8293831;28;20100;-64
2022/06/10 00:46:24;;;;;;;12.67;7.73;;;;;;;12.70;100.00;101123.75;8293169;28;20053;-64
2022/06/10 00:50:29;;;;;;;15.55;8.18;;;;;;;12.69;100.00;101127.44;8288263;28;20307;-64
2022/06/10 00:54:36;;;;;;;10.82;7.93;;;;;;;12.66;100.00;101132.28;8283032;28;20038;-64
2022/06/10 00:58:43;;;;;;;15.05;8.25;;;;;;;12.64;100.00;101137.00;8292806;28;20065;-64
2022/06/10 01:02:44;;;;;;;15.90;8.15;;;;;;;12.58;100.00;101133.00;8310587;28;20029;-64
2022/06/10 01:06:45;;;;;;;10.82;7.90;;;;;;;12.55;100.00;101130.56;8297549;28;20557;-64
2022/06/10 01:11:17;;;;;;;13.57;7.93;;;;;;;12.60;100.00;101138.28;8290996;28;20034;-64
2022/06/10 01:15:55;;;;;;;16.58;8.65;;;;;;;12.67;100.00;101134.00;8322489;28;20045;-64
2022/06/10 01:20:23;;;;;;;10.93;7.25;;;;;;;12.59;100.00;101131.16;8300157;28;20038;-64
2022/06/10 01:29:43;;;;;;;8.77;7.53;;;;;;;12.36;100.00;101129.63;8325302;27;20749;-62
2022/06/10 01:38:36;;;;;;;12.82;8.52;;;;;;;12.37;100.00;101132.19;8322667;27;20359;-62
2022/06/10 01:42:45;;;;;;;9.48;7.90;;;;;;;12.34;100.00;101131.59;8347290;28;20045;-62
2022/06/10 01:46:55;;;;;;;12.15;7.60;;;;;;;12.42;100.00;101129.06;8346684;28;20139;-62
2022/06/10 01:56:00;;;;;;;20.88;8.90;;;;;;;12.37;100.00;101131.31;8390517;27;20682;-63
2022/06/10 02:00:07;;;;;;;9.07;7.85;;;;;;;12.38;100.00;101127.66;8381898;28;20037;-63
2022/06/10 02:04:15;;;;;;;11.80;8.00;;;;;;;12.34;100.00;101128.88;8371992;28;20135;-63
2022/06/10 02:08:21;;;;;;;11.23;7.70;;;;;;;12.31;100.00;101140.00;8372212;28;20043;-63
2022/06/10 02:12:35;;;;;;;11.13;8.57;;;;;;;12.30;100.00;101146.44;8374268;28;20409;-63
2022/06/10 02:16:39;;;;;;;12.52;8.32;;;;;;;12.16;100.00;101142.22;8411247;28;20068;-63
2022/06/10 02:20:46;;;;;;;16.83;8.13;;;;;;;12.12;100.00;101142.63;8380095;28;20044;-63
2022/06/10 02:24:55;;;;;;;17.70;7.82;;;;;;;12.19;100.00;101149.22;8379443;28;20044;-63
2022/06/10 02:28:58;;;;;;;12.77;7.28;;;;;;;12.21;100.00;101144.53;8380289;28;20059;-63
2022/06/10 02:32:59;;;;;;;11.15;8.23;;;;;;;12.13;100.00;101149.78;8379370;28;20033;-64
2022/06/10 02:37:09;;;;;;;14.65;7.90;;;;;;;12.01;100.00;101148.16;8379529;28;20090;-63
2022/06/10 02:41:37;;;;;;;18.90;7.43;;;;;;;11.94;100.00;101158.66;8379419;28;20041;-63
2022/06/10 02:46:05;;;;;;;17.73;8.20;;;;;;;11.83;100.00;101165.00;8378776;28;20068;-63
2022/06/10 02:50:09;;;;;;;10.48;8.48;;;;;;;11.78;100.00;101164.53;8377860;28;20056;-63
2022/06/10 02:54:26;;;;;;;18.50;8.63;;;;;;;11.86;100.00;101164.75;8377973;28;20044;-63
2022/06/10 03:03:03;;;;;;;10.80;7.63;;;;;;;11.69;100.00;101167.22;8374077;28;20189;-63
2022/06/10 03:07:17;;;;;;;15.03;8.23;;;;;;;11.75;100.00;101174.81;8355904;28;20048;-63
2022/06/10 03:11:33;;;;;;;11.38;7.97;;;;;;;11.76;100.00;101163.84;8355783;28;20579;-63
2022/06/10 03:16:02;;;;;;;11.27;8.10;;;;;;;11.78;100.00;101180.81;8356954;28;20486;-63
2022/06/10 03:20:27;;;;;;;12.57;7.60;;;;;;;11.69;100.00;101181.59;8350267;28;20035;-63
2022/06/10 03:25:00;;;;;;;13.40;7.95;;;;;;;11.66;100.00;101184.59;8353963;28;20124;-63
2022/06/10 03:29:39;;;;;;;17.70;9.15;;;;;;;11.65;100.00;101192.84;8354948;28;20126;-63
2022/06/10 03:33:53;;;;;;;15.98;7.28;;;;;;;11.53;100.00;101191.97;8347505;28;20120;-63
2022/06/10 03:37:55;;;;;;;15.57;8.50;;;;;;;11.53;100.00;101194.69;8350338;28;20416;-63
2022/06/10 03:42:16;;;;;;;16.52;7.15;;;;;;;11.48;100.00;101207.78;8355437;28;20044;-63
2022/06/10 03:46:18;;;;;;;20.35;6.93;;;;;;;11.53;100.00;101208.22;8351024;28;20267;-63
2022/06/10 03:50:25;;;;;;;14.25;7.13;;;;;;;11.60;100.00;101201.34;8353236;28;20052;-63
2022/06/10 03:54:26;;;;;;;14.73;6.50;;;;;;;11.69;100.00;101205.97;8354635;28;20036;-63
2022/06/10 03:58:26;;;;;;;15.05;6.78;;;;;;;11.75;100.00;101213.56;8355534;28;20039;-63
2022/06/10 04:02:34;;;;;;;13.02;7.35;;;;;;;11.85;100.00;101217.22;8354835;28;20041;-63
2022/06/10 04:06:35;;;;;;;17.92;6.75;;;;;;;12.03;100.00;101219.31;8348365;28;20067;-63
2022/06/10 04:10:35;;;;;;;16.67;5.88;;;;;;;12.21;100.00;101217.72;8354453;28;20154;-63
2022/06/10 04:14:36;;;;;;;9.65;5.93;;;;;;;12.55;100.00;101219.19;8354778;28;20037;-63
2022/06/10 04:18:37;;;;;;;11.77;5.53;;;;;;;12.90;100.00;101215.03;8352127;28;20055;-63
2022/06/10 04:22:37;;;;;;;8.40;4.70;;;;;;;13.24;100.00;101215.59;8355373;28;20069;-63
2022/06/10 04:26:38;;;;;;;9.65;4.25;;;;;;;13.33;100.00;101220.19;8354585;28;20760;-63
2022/06/10 04:30:42;;;;;;;9.32;4.70;;;;;;;13.50;100.00;101216.75;8353749;28;20036;-63
2022/06/10 04:34:42;;;;;;;15.38;4.90;;;;;;;13.43;100.00;101218.31;8352199;28;20115;-63
2022/06/10 04:38:43;;;;;;;8.55;3.90;;;;;;;13.52;100.00;101225.63;8354636;28;20045;-63
2022/06/10 04:42:45;;;;;;;10.38;4.55;;;;;;;13.86;100.00;101224.19;8350544;28;20215;-63
2022/06/10 04:46:45;;;;;;;12.50;4.72;;;;;;;14.32;100.00;101221.56;8354147;28;20068;-63
2022/06/10 04:50:47;;;;;;;5.65;3.58;;;;;;;14.75;100.00;101219.09;8352880;28;20041;-63
2022/06/10 04:54:47;;;;;;;12.65;4.05;;;;;;;15.18;100.00;101230.19;8353305;28;20131;-63
2022/06/10 04:58:48;;;;;;;7.83;2.87;;;;;;;15.69;98.48;101226.84;8353348;28;20041;-63
2022/06/10 05:02:48;;;;;;;10.90;3.33;;;;;;;16.10;100.00;101219.88;8352106;28;20370;-63
2022/06/10 05:06:49;;;;;;;7.53;2.53;;;;;;;16.41;96.16;101213.75;8352581;28;20041;-63
2022/06/10 05:10:50;;;;;;;10.87;3.00;;;;;;;16.32;97.00;101213.91;8353399;28;20056;-63
2022/06/10 05:14:50;;;;;;;11.98;2.70;;;;;;;16.75;97.46;101220.16;8352185;28;20799;-63
2022/06/10 05:18:51;;;;;;;12.93;3.08;;;;;;;16.94;96.85;101224.50;8351918;28;20452;-63
2022/06/10 05:22:51;;;;;;;11.55;2.92;;;;;;;16.66;99.67;101228.47;8351452;28;20083;-63
2022/06/10 05:26:52;;;;;;;12.20;2.67;;;;;;;16.47;100.00;101224.06;8347391;28;20057;-63
2022/06/10 05:30:52;;;;;;;10.70;3.05;;;;;;;16.33;100.00;101232.84;8343788;28;20701;-63
2022/06/10 05:34:53;;;;;;;12.35;3.63;;;;;;;16.04;100.00;101242.34;8346057;28;20382;-63
2022/06/10 05:38:55;;;;;;;10.77;3.80;;;;;;;15.99;100.00;101231.03;8349998;28;20039;-63
2022/06/10 05:42:56;;;;;;;10.55;4.25;;;;;;;15.86;100.00;101241.50;8352818;28;20055;-63
2022/06/10 05:46:56;;;;;;;10.52;3.53;;;;;;;15.89;100.00;101238.44;8352110;28;20036;-63
2022/06/10 05:50:57;;;;;;;10.68;4.68;;;;;;;15.94;100.00;101241.53;8351726;28;20043;-63
2022/06/10 05:55:01;;;;;;;9.73;4.17;;;;;;;15.92;100.00;101238.97;8351373;28;20107;-63
2022/06/10 05:59:01;;;;;;;11.63;4.43;;;;;;;15.97;100.00;101249.41;8351256;28;20268;-63
2022/06/10 06:03:02;;;;;;;12.23;4.05;;;;;;;16.17;100.00;101240.03;8351422;28;20435;-63
2022/06/10 06:07:03;;;;;;;9.73;3.83;;;;;;;16.34;100.00;101244.59;8351379;28;20029;-63
2022/06/10 06:11:03;;;;;;;9.02;3.88;;;;;;;16.64;100.00;101246.88;8352418;28;20040;-63
2022/06/10 06:15:04;;;;;;;8.40;3.53;;;;;;;16.75;100.00;101249.34;8351259;28;20037;-63
2022/06/10 06:19:05;;;;;;;10.02;3.92;;;;;;;16.77;100.00;101252.78;8351904;28;20092;-63
2022/06/10 06:23:05;;;;;;;13.83;3.93;;;;;;;16.73;100.00;101263.16;8352400;28;20037;-63
2022/06/10 06:27:08;;;;;;;8.73;3.05;;;;;;;16.95;100.00;101261.72;8345333;28;20272;-63
2022/06/10 06:31:09;;;;;;;9.30;2.38;;;;;;;17.19;100.00;101264.56;8350218;28;20037;-63
2022/06/10 06:35:10;;;;;;;8.63;2.75;;;;;;;17.52;95.89;101260.94;8350631;28;20045;-63
2022/06/10 06:39:13;;;;;;;6.38;2.08;;;;;;;17.73;92.34;101261.34;8353566;28;20059;-63
2022/06/10 06:43:13;;;;;;;7.75;1.70;;;;;;;17.83;90.76;101263.91;8358935;28;20048;-63
2022/06/10 06:47:13;;;;;;;6.30;1.27;;;;;;;17.84;88.98;101266.47;8357230;28;20183;-63
2022/06/10 06:51:15;;;;;;;9.60;1.85;;;;;;;17.86;89.25;101269.91;8357881;28;20151;-63
2022/06/10 06:55:15;;;;;;;7.90;1.95;;;;;;;17.81;87.96;101277.75;8356351;28;20186;-63
2022/06/10 06:59:15;;;;;;;11.13;1.40;;;;;;;17.71;87.36;101274.31;8357772;28;20325;-63
2022/06/10 07:03:16;;;;;;;6.10;1.67;;;;;;;17.71;87.51;101285.25;8357452;28;20032;-63
2022/06/10 07:07:17;;;;;;;6.90;1.30;;;;;;;17.90;88.04;101276.75;8356246;28;20041;-63
2022/06/10 07:11:18;;;;;;;4.97;1.50;;;;;;;17.99;89.05;101285.84;8357928;28;20132;-63
2022/06/10 07:15:21;;;;;;;9.95;2.00;;;;;;;18.09;89.15;101279.19;8356824;28;20071;-63
2022/06/10 07:19:21;;;;;;;12.05;1.60;;;;;;;18.33;87.44;101279.16;8356495;28;20064;-63
2022/06/10 07:23:22;;;;;;;8.48;2.17;;;;;;;18.63;86.19;101281.22;8357390;28;20033;-63
2022/06/10 07:27:23;;;;;;;5.57;1.55;;;;;;;18.82;84.70;101286.28;8356294;28;20041;-63
2022/06/10 07:31:23;;;;;;;6.75;1.50;;;;;;;18.84;85.07;101289.72;8356829;28;20060;-63
2022/06/10 07:35:24;;;;;;;9.90;1.52;;;;;;;19.11;80.62;101283.81;8355050;28;20033;-63
2022/06/10 07:39:24;;;;;;;5.90;1.27;;;;;;;19.56;79.31;101290.50;8355725;28;20509;-63
2022/06/10 07:43:25;;;;;;;9.98;1.92;;;;;;;19.89;78.19;101292.03;8356775;28;20497;-63
2022/06/10 07:47:26;;;;;;;7.28;1.23;;;;;;;20.04;75.29;101287.47;8354844;28;20029;-63
2022/06/10 07:51:26;;;;;;;6.53;1.15;;;;;;;20.25;71.45;101280.25;8355019;28;20041;-63
2022/06/10 07:55:27;;;;;;;12.18;1.40;;;;;;;20.70;70.65;101282.06;8355445;28;20033;-63
2022/06/10 07:59:27;;;;;;;5.47;1.05;;;;;;;20.86;70.81;101287.44;8355452;28;20106;-63
2022/06/10 08:03:28;;;;;;;10.18;1.35;;;;;;;21.72;69.53;101285.66;8354627;28;20029;-64
2022/06/10 08:07:28;;;;;;;3.90;0.90;;;;;;;21.29;67.23;101281.94;8355267;28;20040;-63
2022/06/10 08:11:29;;;;;;;10.07;1.43;;;;;;;21.47;68.27;101286.19;8371685;28;20040;-63
2022/06/10 08:15:30;;;;;;;7.35;1.00;;;;;;;21.81;68.80;101283.69;8355009;28;20823;-64
2022/06/10 08:19:32;;;;;;;7.13;1.60;;;;;;;21.77;69.23;101285.13;8352171;28;20072;-63
2022/06/10 08:23:33;;;;;;;4.57;1.50;;;;;;;22.14;67.06;101282.97;8353540;28;20037;-64
2022/06/10 08:27:34;;;;;;;5.88;1.27;;;;;;;22.65;67.30;101291.94;8353026;28;20029;-63
2022/06/10 08:31:35;;;;;;;5.47;1.00;;;;;;;23.34;65.69;101292.84;8342641;28;20052;-63
2022/06/10 08:35:36;;;;;;;9.10;1.40;;;;;;;23.31;63.67;101296.88;8353765;28;20049;-63
2022/06/10 08:39:37;;;;;;;6.85;1.05;;;;;;;23.38;64.70;101302.41;8349557;28;20719;-62
2022/06/10 08:48:09;;;;;;;6.13;1.13;;;;;;;22.77;64.65;101295.84;8382589;27;20790;-63
2022/06/10 08:52:38;;;;;;;5.55;1.67;;;;;;;22.30;65.54;101302.00;8347986;28;20145;-63
2022/06/10 08:56:42;;;;;;;4.93;1.08;;;;;;;22.03;68.21;101311.06;8364997;28;20533;-63
2022/06/10 09:00:44;;;;;;;7.10;1.35;;;;;;;21.93;68.85;101313.28;8365643;28;20429;-63
2022/06/10 09:05:03;;;;;;;8.60;1.67;;;;;;;21.57;69.94;101309.63;8359261;28;20039;-63
2022/06/10 09:09:06;;;;;;;12.25;2.13;;;;;;;21.63;69.43;101311.59;8325231;28;20559;-63
2022/06/10 09:13:34;;;;;;;12.10;2.33;;;;;;;21.85;70.62;101324.41;8338978;28;20355;-63
2022/06/10 09:17:43;;;;;;;11.57;1.67;;;;;;;22.07;70.01;101311.50;8364469;28;20037;-63
2022/06/10 09:22:08;;;;;;;13.77;1.52;;;;;;;22.16;69.73;101322.19;8352279;28;20649;-63
2022/06/10 09:26:17;;;;;;;6.90;1.38;;;;;;;22.22;68.85;101320.56;8357418;28;20071;-63
2022/06/10 09:30:23;;;;;;;11.20;1.80;;;;;;;22.41;70.10;101312.47;8355431;28;20099;-63
2022/06/10 09:34:34;;;;;;;4.22;0.93;;;;;;;22.40;67.52;101310.78;8344372;28;20036;-63
2022/06/10 09:38:59;;;;;;;6.82;0.82;;;;;;;22.14;68.81;101316.03;8364599;28;20032;-63
2022/06/10 09:43:14;;;;;;;18.90;2.80;;;;;;;21.71;71.91;101322.47;8358705;28;20030;-63
2022/06/10 09:47:41;;;;;;;10.10;1.58;;;;;;;21.50;71.13;101313.34;8351761;28;20048;-63
2022/06/10 09:52:06;;;;;;;21.23;3.63;;;;;;;21.43;72.84;101309.66;8354481;28;20053;-63
2022/06/10 10:00:58;;;;;;;4.53;1.58;;;;;;;21.94;72.09;101303.97;8350047;27;20400;-62
2022/06/10 10:05:27;;;;;;;9.13;2.33;;;;;;;22.46;71.17;101300.88;8349657;28;20513;-62
2022/06/10 10:14:16;;;;;;;5.35;1.08;;;;;;;23.71;66.60;101287.72;8371744;27;20428;-63
2022/06/10 10:18:45;;;;;;;6.32;1.35;;;;;;;23.47;66.57;101290.16;8375764;28;20420;-63
2022/06/10 10:23:18;;;;;;;10.48;1.60;;;;;;;22.80;68.29;101285.28;8374630;28;20689;-63
2022/06/10 10:27:27;;;;;;;8.15;1.98;;;;;;;22.92;68.52;101286.44;8378268;28;20079;-63
2022/06/10 10:31:32;;;;;;;6.40;1.25;;;;;;;22.85;67.74;101280.03;8378930;28;20500;-60
2022/06/10 10:35:41;;;;;;;7.15;1.20;;;;;;;22.59;69.41;101273.44;8370082;28;20089;-63
2022/06/10 10:39:49;;;;;;;6.78;1.23;;;;;;;22.43;69.93;101263.53;8379671;28;20036;-63
2022/06/10 10:43:55;;;;;;;6.20;1.33;;;;;;;22.26;67.95;101266.78;8376103;28;20079;-63
2022/06/10 10:48:01;;;;;;;5.18;0.90;;;;;;;22.47;69.83;101267.59;8382164;28;20024;-63
2022/06/10 10:52:18;;;;;;;4.45;1.13;;;;;;;22.36;69.13;101261.78;8365099;28;20044;-63
2022/06/10 10:56:28;;;;;;;12.75;2.00;;;;;;;23.03;67.00;101263.78;8342352;28;20085;-63
2022/06/10 11:00:46;;;;;;;4.18;0.77;;;;;;;23.41;65.85;101257.84;8340518;28;20048;-63
2022/06/10 11:04:46;;;;;;;3.17;1.38;;;;;;;23.26;65.44;101270.97;8336949;28;20051;-63
2022/06/10 11:08:58;;;;;;;4.60;0.93;;;;;;;23.67;64.81;101269.00;8337779;28;20041;-63
2022/06/10 11:13:07;;;;;;;7.13;1.50;;;;;;;24.12;65.60;101262.78;8336261;28;20289;-63
2022/06/10 11:21:26;;;;;;;5.05;1.20;;;;;;;24.27;62.12;101264.28;8341924;27;20403;-63
2022/06/10 11:25:27;;;;;;;6.25;1.10;;;;;;;24.55;63.69;101253.03;8319157;28;20063;-63
2022/06/10 11:29:29;;;;;;;8.32;1.70;;;;;;;25.38;61.19;101250.34;8308218;28;20040;-63
2022/06/10 11:33:38;;;;;;;5.55;1.10;;;;;;;25.54;59.71;101248.97;8311765;28;20046;-63
2022/06/10 11:37:40;;;;;;;5.30;1.48;;;;;;;25.97;58.71;101250.03;8321303;28;20573;-63
2022/06/10 11:41:41;;;;;;;5.03;1.30;;;;;;;26.73;59.76;101241.38;8303936;28;20064;-62
2022/06/10 11:45:54;;;;;;;5.95;1.13;;;;;;;27.12;57.09;101236.47;8304553;28;20049;-62
2022/06/10 11:50:03;;;;;;;6.18;1.15;;;;;;;26.35;59.11;101237.00;8304314;28;20045;-62
2022/06/10 11:54:31;;;;;;;6.63;1.20;;;;;;;25.86;58.88;101226.63;8313318;28;20576;-62
2022/06/10 11:59:49;;;;;;;6.13;0.95;;;;;;;26.38;57.63;101215.19;8318537;28;20155;-62
2022/06/10 12:03:15;;;;;;;3.97;0.63;;;;;;;26.94;57.45;101212.31;8322342;28;20073;-62
2022/06/10 12:07:20;;;;;;;4.10;0.70;;;;;;;26.37;57.70;101216.28;8308647;28;20676;-62
2022/06/10 12:11:33;;;;;;;3.35;1.00;;;;;;;26.25;56.76;101214.44;8308928;28;20061;-62
2022/06/10 12:15:37;;;;;;;2.65;0.80;;;;;;;25.78;58.68;101213.06;8322325;28;20164;-62
2022/06/10 12:19:47;;;;;;;3.85;0.88;;;;;;;25.36;61.26;101207.31;8318722;28;20660;-62
2022/06/10 12:23:47;;;;;;;6.82;1.17;;;;;;;26.14;59.04;101202.16;8309835;28;20050;-62
2022/06/10 12:28:08;;;;;;;4.60;1.08;;;;;;;25.98;57.95;101202.72;8316826;28;20080;-62
2022/06/10 12:32:25;;;;;;;4.10;0.98;;;;;;;25.47;58.34;101192.78;8301511;28;20033;-62
2022/06/10 12:36:35;;;;;;;8.38;1.00;;;;;;;25.50;58.46;101192.34;8309289;28;20061;-62
2022/06/10 12:40:58;;;;;;;6.55;1.00;;;;;;;25.57;57.83;101188.47;8293188;28;20041;-63
2022/06/10 12:45:01;;;;;;;4.50;0.93;;;;;;;24.90;59.42;101193.63;8286692;28;20504;-63
2022/06/10 12:49:27;;;;;;;4.70;1.15;;;;;;;24.80;59.19;101187.69;8287057;28;20288;-63
2022/06/10 12:53:54;;;;;;;5.72;1.10;;;;;;;24.64;59.48;101190.91;8285074;28;20037;-63
2022/06/10 12:57:55;;;;;;;3.05;0.93;;;;;;;24.52;61.36;101178.78;8287945;28;20628;-64
2022/06/10 13:01:56;;;;;;;3.92;0.85;;;;;;;24.76;60.52;101183.63;8294980;28;20077;-63
2022/06/10 13:05:56;;;;;;;4.32;0.82;;;;;;;25.48;60.53;101184.25;8292260;28;20041;-63
2022/06/10 13:10:35;;;;;;;3.42;0.88;;;;;;;25.49;60.22;101180.41;8283411;28;20042;-63
2022/06/10 13:14:41;;;;;;;3.65;0.90;;;;;;;24.69;60.53;101178.16;8296545;28;20060;-63
2022/06/10 13:18:53;;;;;;;5.72;1.00;;;;;;;24.46;63.68;101182.41;8289152;28;20041;-64
2022/06/10 13:23:19;;;;;;;2.92;0.80;;;;;;;24.79;61.57;101185.97;8299050;28;20049;-64
2022/06/10 13:27:26;;;;;;;3.15;0.80;;;;;;;25.03;59.49;101174.19;8282690;28;20034;-63
2022/06/10 13:31:26;;;;;;;5.47;0.98;;;;;;;25.07;60.18;101175.47;8287590;28;20571;-63
2022/06/10 13:35:32;;;;;;;3.87;0.70;;;;;;;25.25;60.23;101170.06;8285323;28;20358;-63
2022/06/10 13:39:36;;;;;;;4.43;1.05;;;;;;;25.33;61.61;101168.97;8286310;28;20843;-63
2022/06/10 13:43:37;;;;;;;2.92;0.73;;;;;;;25.48;59.73;101175.94;8289180;28;20046;-64
2022/06/10 13:47:38;;;;;;;2.35;0.93;;;;;;;25.59;59.26;101163.31;8287036;28;20041;-64
2022/06/10 13:51:42;;;;;;;3.25;0.90;;;;;;;25.31;58.88;101166.41;8298929;28;20444;-64
2022/06/10 13:55:53;;;;;;;5.93;0.80;;;;;;;24.86;61.08;101160.00;8291410;28;20048;-64
2022/06/10 14:00:00;;;;;;;3.00;0.90;;;;;;;25.04;60.71;101162.91;8293356;28;20037;-64
2022/06/10 14:04:09;;;;;;;4.97;1.15;;;;;;;24.46;62.82;101160.28;8301200;28;20041;-64
2022/06/10 14:08:16;;;;;;;6.15;1.10;;;;;;;24.51;65.26;101160.47;8291175;28;20428;-64
2022/06/10 14:12:26;;;;;;;3.92;0.90;;;;;;;24.67;63.71;101158.13;8302152;28;20503;-64
2022/06/10 14:16:30;;;;;;;2.53;0.65;;;;;;;24.28;62.88;101140.75;8304407;28;20041;-64
2022/06/10 14:20:36;;;;;;;5.43;1.10;;;;;;;24.32;64.13;101142.00;8309237;28;20055;-64
2022/06/10 14:24:37;;;;;;;7.50;0.93;;;;;;;24.31;65.55;101137.56;8298999;28;20042;-64
2022/06/10 14:28:39;;;;;;;2.83;1.02;;;;;;;24.51;65.00;101141.13;8303114;28;20044;-64
2022/06/10 14:32:57;;;;;;;5.85;1.02;;;;;;;24.30;64.13;101135.84;8294823;28;20053;-64
2022/06/10 14:37:05;;;;;;;7.97;1.38;;;;;;;24.12;64.26;101138.44;8285598;28;20346;-64
2022/06/10 14:45:36;;;;;;;6.65;1.08;;;;;;;24.36;64.01;101134.97;8326746;27;20396;-63
2022/06/10 14:49:58;;;;;;;7.18;1.33;;;;;;;24.56;64.04;101138.56;8290408;28;20077;-63
2022/06/10 14:54:11;;;;;;;7.43;1.02;;;;;;;24.53;64.85;101125.19;8273840;28;20111;-63
2022/06/10 14:58:15;;;;;;;7.13;1.08;;;;;;;24.45;65.63;101125.38;8292832;28;20073;-63
2022/06/10 15:02:15;;;;;;;5.90;0.80;;;;;;;24.63;63.47;101123.66;8298181;28;20050;-63
2022/06/10 15:06:36;;;;;;;3.78;1.08;;;;;;;24.56;63.37;101127.50;8297879;28;20064;-63
2022/06/10 15:10:38;;;;;;;4.40;1.00;;;;;;;24.30;64.24;101128.41;8297518;28;20045;-63
2022/06/10 15:14:39;;;;;;;3.90;0.82;;;;;;;24.36;64.66;101116.50;8299344;28;20539;-63
2022/06/10 15:18:40;;;;;;;5.60;1.25;;;;;;;24.32;64.64;101114.38;8299692;28;20508;-64
2022/06/10 15:22:47;;;;;;;6.72;1.20;;;;;;;24.46;64.56;101107.75;8304031;28;20522;-64
2022/06/10 15:26:50;;;;;;;6.15;1.13;;;;;;;24.69;64.88;101105.38;8301247;28;20837;-63
2022/06/10 15:30:53;;;;;;;13.77;2.33;;;;;;;24.64;63.82;101107.94;8295184;28;20060;-63
2022/06/10 15:40:42;;;;;;;4.15;1.30;;;;;;;24.42;64.32;101100.94;8293778;28;20037;-63
2022/06/10 15:43:39;;;;;;;2.83;0.93;;;;;;;24.18;65.01;101101.66;8296431;28;20049;-63
2022/06/10 15:47:40;;;;;;;7.10;1.45;;;;;;;24.17;64.22;101099.94;8303994;28;20076;-63
2022/06/10 15:51:46;;;;;;;4.47;0.90;;;;;;;24.25;64.94;101102.47;8309927;28;20037;-63
2022/06/10 15:57:18;;;;;;;3.72;0.93;;;;;;;24.24;65.60;101095.25;8273640;28;20464;-63
2022/06/10 16:00:15;;;;;;;2.42;0.80;;;;;;;24.29;64.82;101092.69;8272111;28;20038;-63
2022/06/10 16:04:19;;;;;;;7.45;1.58;;;;;;;24.33;65.16;101094.81;8287971;28;20111;-63
2022/06/10 16:08:21;;;;;;;2.70;0.73;;;;;;;24.45;66.04;101092.22;8285726;28;21576;-63
2022/06/10 16:13:00;;;;;;;4.45;1.15;;;;;;;24.54;64.25;101091.78;8279969;28;20030;-63
2022/06/10 16:16:47;;;;;;;4.35;0.80;;;;;;;24.50;66.49;101092.44;8281290;28;20099;-63
2022/06/10 16:20:49;;;;;;;6.03;1.00;;;;;;;24.55;65.97;101076.03;8284016;28;20038;-63
2022/06/10 16:24:50;;;;;;;6.05;1.35;;;;;;;24.42;66.86;101087.13;8280023;28;20288;-63
2022/06/10 16:28:53;;;;;;;5.60;1.10;;;;;;;24.60;65.03;101085.38;8280628;28;20197;-63
2022/06/10 16:32:55;;;;;;;4.30;0.77;;;;;;;24.47;64.77;101081.81;8280466;28;20524;-63
2022/06/10 16:36:55;;;;;;;4.30;0.88;;;;;;;24.51;65.12;101083.91;8280421;28;20037;-63
2022/06/10 16:40:57;;;;;;;6.13;1.25;;;;;;;24.48;67.19;101081.59;8275907;28;20038;-63
2022/06/10 16:44:59;;;;;;;3.03;0.80;;;;;;;24.58;65.68;101086.66;8286702;28;20149;-63
2022/06/10 16:49:00;;;;;;;4.57;1.35;;;;;;;24.54;64.53;101086.25;8279033;28;20041;-63
2022/06/10 16:53:00;;;;;;;2.60;0.75;;;;;;;24.46;66.00;101078.16;8281941;28;20108;-63
2022/06/10 16:57:04;;;;;;;4.05;1.10;;;;;;;24.31;67.29;101079.50;8295001;28;20486;-63
2022/06/10 17:01:06;;;;;;;2.77;0.87;;;;;;;24.21;67.20;101085.47;8279128;28;20045;-64
2022/06/10 17:05:13;;;;;;;2.72;0.70;;;;;;;24.16;66.74;101078.91;8278299;28;20046;-63
2022/06/10 17:09:14;;;;;;;4.07;0.90;;;;;;;24.21;65.94;101079.94;8277558;28;20087;-63
2022/06/10 17:13:18;;;;;;;9.38;1.13;;;;;;;24.17;65.60;101073.16;8276892;28;20108;-63
2022/06/10 17:17:19;;;;;;;6.47;1.20;;;;;;;24.22;67.15;101078.91;8276168;28;20115;-63
2022/06/10 17:21:20;;;;;;;4.40;1.15;;;;;;;24.33;65.07;101074.59;8290546;28;20125;-63
2022/06/10 17:25:20;;;;;;;3.50;0.80;;;;;;;24.27;66.62;101078.22;8278388;28;20045;-63
2022/06/10 17:29:33;;;;;;;5.85;1.27;;;;;;;24.13;67.51;101077.41;8274465;28;20046;-63
2022/06/10 17:33:39;;;;;;;6.85;1.20;;;;;;;24.12;66.63;101074.88;8272298;28;20389;-63
2022/06/10 17:37:39;;;;;;;4.22;0.90;;;;;;;24.07;68.26;101066.38;8270891;28;20043;-63
2022/06/10 17:41:46;;;;;;;2.60;1.08;;;;;;;24.19;65.72;101070.16;8268223;28;20046;-63
2022/06/10 17:45:48;;;;;;;6.72;1.15;;;;;;;24.17;66.31;101075.06;8299559;28;20480;-63
2022/06/10 17:49:51;;;;;;;5.97;1.30;;;;;;;24.24;66.42;101079.50;8276314;28;20045;-63
2022/06/10 17:53:51;;;;;;;4.10;1.00;;;;;;;24.43;66.86;101088.84;8277384;28;20026;-63
2022/06/10 17:57:55;;;;;;;8.77;1.00;;;;;;;24.32;65.70;101081.19;8272653;28;20064;-63
2022/06/10 18:01:55;;;;;;;4.57;0.73;;;;;;;24.36;66.19;101082.44;8274981;28;20637;-63
2022/06/10 18:05:57;;;;;;;4.07;0.80;;;;;;;24.34;65.75;101079.91;8287911;28;20038;-63
2022/06/10 18:09:58;;;;;;;2.28;0.90;;;;;;;24.36;65.53;101082.44;8289722;28;20119;-63
2022/06/10 18:15:00;;;;;;;3.75;0.90;;;;;;;24.21;65.80;101081.88;8282330;28;20076;-63
2022/06/10 18:18:22;;;;;;;5.40;0.70;;;;;;;24.10;66.81;101074.22;8304462;28;20030;-63
2022/06/10 18:22:22;;;;;;;3.47;0.80;;;;;;;24.11;66.52;101084.22;8287989;28;20438;-63
2022/06/10 18:26:42;;;;;;;5.05;1.00;;;;;;;24.00;67.64;101079.34;8288116;28;20034;-63
2022/06/10 18:30:46;;;;;;;2.85;0.70;;;;;;;23.91;67.90;101075.06;8298009;28;20029;-63
2022/06/10 18:34:49;;;;;;;2.72;0.98;;;;;;;23.65;70.22;101077.81;8311335;28;20393;-63
2022/06/10 18:38:49;;;;;;;4.30;0.80;;;;;;;23.62;70.09;101072.72;8285201;28;20049;-63
2022/06/10 18:43:50;;;;;;;4.50;1.30;;;;;;;23.57;70.18;101069.75;8276349;28;20104;-63
2022/06/10 18:47:26;;;;;;;5.20;1.20;;;;;;;23.40;71.91;101073.97;8295504;28;20029;-63
2022/06/10 18:51:33;;;;;;;5.65;1.30;;;;;;;23.28;72.64;101081.16;8303516;28;20176;-64
2022/06/10 18:55:35;;;;;;;4.40;0.90;;;;;;;23.14;73.42;101070.06;8274015;28;20096;-63
2022/06/10 18:59:35;;;;;;;8.07;1.02;;;;;;;22.97;74.22;101073.44;8274215;28;20045;-63
2022/06/10 19:03:38;;;;;;;4.53;1.20;;;;;;;22.79;75.95;101071.25;8317998;28;20069;-63
2022/06/10 19:07:39;;;;;;;5.57;1.50;;;;;;;22.61;76.64;101073.72;8317334;28;20617;-63
2022/06/10 19:11:39;;;;;;;7.97;1.30;;;;;;;22.55;77.44;101069.03;8296894;28;20038;-63
2022/06/10 19:15:49;;;;;;;5.90;1.42;;;;;;;22.55;77.00;101063.50;8273434;28;20092;-63
2022/06/10 19:19:54;;;;;;;3.78;0.98;;;;;;;22.43;78.03;101070.63;8313321;28;20043;-63
2022/06/10 19:23:54;;;;;;;;;;;;;;;22.32;78.91;101068.44;8272903;28;20048;-63
2022/06/10 19:27:57;;;;;;;4.23;1.33;;;;;;;22.10;80.10;101075.06;8282504;28;19918;-63
2022/06/10 19:32:02;;;;;;;6.47;1.48;;;;;;;21.99;80.04;101077.53;8288868;28;20057;-63
2022/06/10 19:36:28;;;;;;;7.22;2.17;;;;;;;21.85;80.97;101071.06;8285135;28;20065;-63
2022/06/10 19:40:35;;;;;;;4.45;1.20;;;;;;;21.77;81.57;101084.16;8274942;28;20520;-63
2022/06/10 19:44:36;;;;;;;4.28;1.45;;;;;;;21.74;80.46;101071.63;8281448;28;20053;-63